ESSV/VBY METAR and TAF weather

Enter ICAO airport designator
Station Type Date Time Source
ESSV METAR 2019/08/24 09:50 UTC NOAA

ESSV 240950Z 28006KT 250V310 9999 BKN024 18/14 Q1026


Station Type Date Time Source
ESSV Decoded METAR 2019/08/24 09:50 UTC NOAA

Station name not available
Aug 24, 2019 - 05:50 AM EDT / 2019.08.24 0950 UTC
Wind: from the W (280 degrees) at 7 MPH (6 KT) (direction variable):0
Visibility: greater than 7 mile(s):0
Sky conditions: mostly cloudy
Temperature: 64 F (18 C)
Dew Point: 57 F (14 C)
Relative Humidity: 77%
Pressure (altimeter): 30.30 in. Hg (1026 hPa)
ob: ESSV 240950Z 28006KT 250V310 9999 BKN024 18/14 Q1026
cycle: 10

Station Type Date Time Source
ESSV TAF 2017/09/20 09:39 UTC NOAA

TAF COR TAF COR ESSV 200840Z 2009/2021 10005KT 9999 BKN030 PROB40 2009/2016 4000 TS SHRA BKN015CB

Example: see airport list